Granger, Washington
Current Conditions -  °F | °C
As of 3:53 PM on Friday 28 Nov 2014 (Local Time) from KYKM Reporting Station
Broken Clouds Broken Clouds  
Wind Chill: 58°   Ceiling: 4700
Heat Index: 58°   Visibility: 10mi
Dew Point: 44°   Wind: 16mph
Humidity: 60%   Direction: 190°S
Pressure: 29.33"   Gusts: NA
Location:  46.34°N, 120.19°W
Report Text: KYKM 282353Z 19014KT 10SM BKN047 14/07 A2933 RMK AO2 SLP930 T01440067 10172 20144 56019
Loading
Personal Weather Stations






























Interactive Weather Map New forecast layout! Learn more

10-Day Weather Forecast

Advertisements
Track Severe Weather on mobile